createdAt,value
2023-01-17T00:02:11.737Z,4.23
2023-01-17T00:04:57.117Z,6.70
2023-01-17T00:07:44.480Z,7.43
2023-01-17T00:10:13.539Z,6.63
2023-01-17T00:12:45.658Z,8.03
2023-01-17T00:15:12.533Z,6.03
2023-01-17T00:17:39.578Z,5.60
2023-01-17T00:20:26.255Z,8.00
2023-01-17T00:23:13.398Z,5.63
2023-01-17T00:25:59.306Z,7.30
2023-01-17T00:28:27.095Z,8.30
2023-01-17T00:30:54.214Z,6.17
2023-01-17T00:33:22.514Z,7.83
2023-01-17T00:35:49.900Z,6.17
2023-01-17T00:38:20.103Z,5.63
2023-01-17T00:40:47.670Z,9.67
2023-01-17T00:43:35.822Z,8.57
2023-01-17T00:46:21.844Z,5.73
2023-01-17T00:49:07.418Z,5.70
2023-01-17T00:51:53.629Z,5.57
2023-01-17T00:54:41.289Z,7.30
2023-01-17T00:57:27.191Z,11.20
2023-01-17T01:00:12.341Z,7.30
2023-01-17T01:02:58.165Z,7.50
2023-01-17T01:05:43.783Z,8.13
2023-01-17T01:08:39.422Z,12.17
2023-01-17T01:11:28.267Z,11.87
2023-01-17T01:14:14.447Z,11.27
2023-01-17T01:17:00.422Z,14.43
2023-01-17T01:19:45.606Z,10.27
2023-01-17T01:22:31.285Z,11.77
2023-01-17T01:25:16.950Z,6.50
2023-01-17T01:28:03.785Z,4.83
2023-01-17T01:30:49.474Z,9.97
2023-01-17T01:33:19.295Z,10.10
2023-01-17T01:35:48.212Z,4.70
2023-01-17T01:38:15.182Z,4.83
2023-01-17T01:40:44.031Z,6.57
2023-01-17T01:43:14.856Z,6.93
2023-01-17T01:45:47.267Z,12.73
2023-01-17T01:48:34.697Z,11.23
2023-01-17T01:51:04.645Z,7.73
2023-01-17T01:53:35.607Z,5.63
2023-01-17T01:56:04.302Z,5.97
2023-01-17T01:58:36.967Z,8.43
2023-01-17T02:01:05.400Z,4.57
2023-01-17T02:03:33.626Z,7.73
2023-01-17T02:06:07.591Z,7.27
2023-01-17T02:08:35.446Z,8.20
2023-01-17T02:11:03.113Z,4.77
2023-01-17T02:13:32.093Z,7.20
2023-01-17T02:16:05.785Z,8.20
2023-01-17T02:18:49.184Z,5.97
2023-01-17T02:21:23.263Z,7.43
2023-01-17T02:24:24.580Z,6.70
2023-01-17T02:26:57.959Z,12.90
2023-01-17T02:30:01.789Z,5.07
2023-01-17T02:32:43.252Z,6.70
2023-01-17T02:35:17.870Z,7.20
2023-01-17T02:37:54.604Z,6.10
2023-01-17T02:40:26.541Z,7.20
2023-01-17T02:42:57.087Z,8.27
2023-01-17T02:45:23.975Z,5.50
2023-01-17T02:47:52.272Z,12.83
2023-01-17T02:50:23.008Z,7.00
2023-01-17T02:53:03.632Z,16.97
2023-01-17T02:55:46.707Z,12.37
2023-01-17T02:58:38.681Z,7.00
2023-01-17T03:01:16.199Z,7.03
2023-01-17T03:03:51.842Z,9.20
2023-01-17T03:06:23.671Z,8.47
2023-01-17T03:08:52.087Z,12.90
2023-01-17T03:11:19.417Z,9.57
2023-01-17T03:13:46.362Z,13.43
2023-01-17T03:16:18.651Z,9.23
2023-01-17T03:18:47.295Z,11.37
2023-01-17T03:21:14.316Z,8.30
2023-01-17T03:23:41.220Z,10.40
2023-01-17T03:26:08.288Z,12.10
2023-01-17T03:28:35.250Z,7.57
2023-01-17T03:31:02.244Z,15.50
2023-01-17T03:33:29.263Z,8.47
2023-01-17T03:36:00.894Z,11.40
2023-01-17T03:38:29.249Z,9.93
2023-01-17T03:40:56.328Z,9.53
2023-01-17T03:43:23.349Z,9.07
2023-01-17T03:45:50.388Z,7.77
2023-01-17T03:48:17.365Z,9.63
2023-01-17T03:50:44.296Z,8.20
2023-01-17T03:53:12.661Z,16.83
2023-01-17T03:55:39.580Z,17.20
2023-01-17T03:58:08.076Z,9.43
2023-01-17T04:00:34.988Z,9.57
2023-01-17T04:03:01.831Z,13.03
2023-01-17T04:05:28.781Z,11.17
2023-01-17T04:07:55.668Z,11.20
2023-01-17T04:10:24.033Z,8.23
2023-01-17T04:12:50.919Z,7.27
2023-01-17T04:15:17.978Z,12.50
2023-01-17T04:17:44.905Z,10.00
2023-01-17T04:20:16.337Z,9.77
2023-01-17T04:22:44.516Z,15.53
2023-01-17T04:25:11.762Z,14.97
2023-01-17T04:27:40.285Z,11.93
2023-01-17T04:30:08.164Z,9.17
2023-01-17T04:32:34.990Z,9.83
2023-01-17T04:35:01.942Z,8.80
2023-01-17T04:37:28.775Z,12.27
2023-01-17T04:39:55.594Z,9.57
2023-01-17T04:42:22.542Z,10.97
2023-01-17T04:44:50.813Z,15.03
2023-01-17T04:47:17.747Z,9.17
2023-01-17T04:49:44.608Z,11.57
2023-01-17T04:52:11.880Z,10.60
2023-01-17T04:54:38.715Z,11.20
2023-01-17T04:57:05.666Z,13.20
2023-01-17T04:59:32.643Z,21.50
2023-01-17T05:02:01.008Z,9.20
2023-01-17T05:04:30.899Z,11.43
2023-01-17T05:06:57.901Z,11.63
2023-01-17T05:09:24.916Z,11.77
2023-01-17T05:11:51.825Z,13.10
2023-01-17T05:14:18.750Z,12.33
2023-01-17T05:16:45.599Z,18.33
2023-01-17T05:19:14.084Z,14.37
2023-01-17T05:21:40.922Z,30.80
2023-01-17T05:24:07.955Z,12.83
2023-01-17T05:26:34.878Z,13.47
2023-01-17T05:29:01.726Z,14.63
2023-01-17T05:31:28.536Z,11.67
2023-01-17T05:33:55.613Z,10.27
2023-01-17T05:36:23.833Z,15.27
2023-01-17T05:38:50.748Z,13.27
2023-01-17T05:41:17.648Z,13.60
2023-01-17T05:43:44.488Z,12.87
2023-01-17T05:46:11.567Z,9.17
2023-01-17T05:48:38.472Z,15.73
2023-01-17T05:51:05.556Z,15.00
2023-01-17T05:53:33.977Z,14.27
2023-01-17T05:56:00.859Z,8.63
2023-01-17T05:58:27.779Z,16.10
2023-01-17T06:00:55.552Z,12.90
2023-01-17T06:03:22.408Z,10.90
2023-01-17T06:05:50.218Z,10.67
2023-01-17T06:08:17.173Z,10.70
2023-01-17T06:10:45.448Z,13.87
2023-01-17T06:13:15.354Z,15.63
2023-01-17T06:15:42.741Z,14.97
2023-01-17T06:18:11.850Z,18.20
2023-01-17T06:20:39.702Z,10.17
2023-01-17T06:23:08.759Z,11.70
2023-01-17T06:25:37.450Z,14.10
2023-01-17T06:28:06.234Z,11.70
2023-01-17T06:30:33.265Z,13.37
2023-01-17T06:33:00.413Z,13.67
2023-01-17T06:35:32.694Z,10.13
2023-01-17T06:38:00.574Z,14.03
2023-01-17T06:40:28.539Z,11.90
2023-01-17T06:42:59.777Z,19.33
2023-01-17T06:45:29.948Z,13.93
2023-01-17T06:47:59.241Z,12.97
2023-01-17T06:50:26.861Z,9.60
2023-01-17T06:52:59.549Z,12.13
2023-01-17T06:55:30.179Z,11.40
2023-01-17T06:57:59.551Z,13.57
2023-01-17T07:00:29.568Z,13.60
2023-01-17T07:02:56.656Z,18.23
2023-01-17T07:05:23.624Z,9.57
2023-01-17T07:07:50.511Z,11.13
2023-01-17T07:10:17.435Z,9.37
2023-01-17T07:12:44.350Z,9.10
2023-01-17T07:15:12.150Z,10.47
2023-01-17T07:17:40.481Z,13.67
2023-01-17T07:20:08.564Z,9.10
2023-01-17T07:22:37.885Z,14.07
2023-01-17T07:25:05.777Z,13.60
2023-01-17T07:27:33.663Z,13.00
2023-01-17T07:30:00.951Z,14.97
2023-01-17T07:32:28.172Z,9.97
2023-01-17T07:34:59.192Z,13.37
2023-01-17T07:37:28.594Z,9.20
2023-01-17T07:39:55.603Z,10.50
2023-01-17T07:42:24.162Z,10.73
2023-01-17T07:44:51.325Z,13.07
2023-01-17T07:47:18.151Z,7.73
2023-01-17T07:49:45.191Z,10.20
2023-01-17T07:52:13.501Z,10.47
2023-01-17T07:54:40.432Z,11.17
2023-01-17T07:57:11.580Z,9.93
2023-01-17T07:59:38.380Z,11.43
2023-01-17T08:02:05.371Z,9.10
2023-01-17T08:04:35.305Z,9.03
2023-01-17T08:07:02.478Z,17.20
2023-01-17T08:09:30.981Z,16.03
2023-01-17T08:11:57.838Z,14.37
2023-01-17T08:14:25.070Z,12.93
2023-01-17T08:16:52.137Z,20.17
2023-01-17T08:19:19.173Z,8.30
2023-01-17T08:21:46.103Z,12.33
2023-01-17T08:24:13.849Z,13.07
2023-01-17T08:26:42.142Z,13.83
2023-01-17T08:29:09.464Z,9.83
2023-01-17T08:31:36.827Z,8.83
2023-01-17T08:34:04.423Z,12.57
2023-01-17T08:36:31.555Z,13.07
2023-01-17T08:38:59.008Z,9.93
2023-01-17T08:41:27.900Z,11.10
2023-01-17T08:43:56.790Z,21.10
2023-01-17T08:46:24.468Z,15.77
2023-01-17T08:48:53.999Z,10.60
2023-01-17T08:51:20.928Z,13.33
2023-01-17T08:53:48.641Z,13.00
2023-01-17T08:56:15.555Z,14.73
2023-01-17T08:58:42.663Z,17.73
2023-01-17T09:01:11.103Z,14.83
2023-01-17T09:03:40.776Z,15.20
2023-01-17T09:06:10.415Z,12.20
2023-01-17T09:08:37.742Z,14.07
2023-01-17T09:11:05.198Z,15.70
2023-01-17T09:13:32.001Z,22.13
2023-01-17T09:15:59.717Z,21.67
2023-01-17T09:18:29.440Z,28.73
2023-01-17T09:20:59.240Z,23.47
2023-01-17T09:23:28.146Z,25.03
2023-01-17T09:25:56.172Z,26.43
2023-01-17T09:28:23.838Z,21.00
2023-01-17T09:30:51.170Z,29.40
2023-01-17T09:33:18.144Z,32.20
2023-01-17T09:35:47.104Z,26.30
2023-01-17T09:38:14.189Z,38.10
2023-01-17T09:40:44.993Z,21.70
2023-01-17T09:43:23.406Z,23.40
2023-01-17T09:45:50.556Z,26.47
2023-01-17T09:48:25.430Z,19.47
2023-01-17T09:50:59.510Z,29.93
2023-01-17T09:53:27.613Z,22.23
2023-01-17T09:55:58.736Z,27.77
2023-01-17T09:58:35.491Z,23.10
2023-01-17T10:01:13.105Z,21.30
2023-01-17T10:03:53.893Z,19.03
2023-01-17T10:06:36.785Z,18.97
2023-01-17T10:09:24.365Z,21.47
2023-01-17T10:12:09.158Z,27.97
2023-01-17T10:14:55.110Z,30.60
2023-01-17T10:17:33.096Z,23.70
2023-01-17T10:20:12.405Z,24.90
2023-01-17T10:22:56.052Z,23.80
2023-01-17T10:25:34.690Z,37.40
2023-01-17T10:28:10.284Z,40.17
2023-01-17T10:30:42.619Z,31.03
2023-01-17T10:33:15.128Z,19.80
2023-01-17T10:35:53.418Z,23.13
2023-01-17T10:38:25.720Z,26.93
2023-01-17T10:40:57.469Z,22.40
2023-01-17T10:43:30.887Z,27.20
2023-01-17T10:45:58.031Z,24.25
2023-01-17T10:48:36.882Z,22.43
2023-01-17T10:51:13.853Z,20.67
2023-01-17T10:53:55.174Z,23.67
2023-01-17T10:56:27.239Z,24.03
2023-01-17T10:59:08.451Z,27.40
2023-01-17T11:01:35.492Z,34.13
2023-01-17T11:04:03.271Z,32.83
2023-01-17T11:06:33.219Z,25.50
2023-01-17T11:09:05.348Z,27.30
2023-01-17T11:11:34.339Z,33.17
2023-01-17T11:14:05.113Z,21.67
2023-01-17T11:16:32.600Z,21.37
2023-01-17T11:19:13.526Z,20.73
2023-01-17T11:21:50.196Z,26.97
2023-01-17T11:24:26.029Z,21.53
2023-01-17T11:26:52.906Z,18.63
2023-01-17T11:29:31.431Z,23.70
2023-01-17T11:32:17.979Z,17.20
2023-01-17T11:34:44.850Z,17.90
2023-01-17T11:37:19.405Z,21.07
2023-01-17T11:39:48.271Z,20.53
2023-01-17T11:42:36.810Z,20.87
2023-01-17T11:45:24.359Z,21.43
2023-01-17T11:48:12.402Z,24.87
2023-01-17T11:50:41.414Z,59.27
2023-01-17T11:53:17.973Z,22.53
2023-01-17T11:56:05.613Z,19.43
2023-01-17T11:58:34.943Z,12.83
2023-01-17T12:01:21.083Z,15.67
2023-01-17T12:04:03.210Z,14.60
2023-01-17T12:06:56.179Z,13.73
2023-01-17T12:09:32.330Z,12.02
2023-01-17T12:12:29.266Z,15.17
2023-01-17T12:15:08.625Z,8.63
2023-01-17T12:17:51.172Z,11.70
2023-01-17T12:20:24.866Z,13.93
2023-01-17T12:23:19.666Z,9.77
2023-01-17T12:26:00.776Z,12.53
2023-01-17T12:28:46.668Z,13.60
2023-01-17T12:31:27.124Z,21.80
2023-01-17T12:34:00.161Z,9.33
2023-01-17T12:36:37.806Z,9.85
2023-01-17T12:39:11.958Z,8.07
2023-01-17T12:41:52.802Z,14.07
2023-01-17T12:44:39.153Z,15.80
2023-01-17T12:47:07.352Z,10.80
2023-01-17T12:49:41.750Z,8.70
2023-01-17T12:52:15.208Z,8.47
2023-01-17T12:54:46.912Z,8.85
2023-01-17T12:57:18.556Z,9.73
2023-01-17T12:59:53.729Z,4.73
2023-01-17T13:02:31.332Z,5.67
2023-01-17T13:05:05.955Z,9.53
2023-01-17T13:07:42.241Z,4.50
2023-01-17T13:10:23.786Z,7.53
2023-01-17T13:12:51.813Z,7.53
2023-01-17T13:15:25.604Z,4.40
2023-01-17T13:18:00.853Z,10.20
2023-01-17T13:20:33.446Z,5.83
2023-01-17T13:23:08.650Z,10.90
2023-01-17T13:25:45.307Z,4.67
2023-01-17T13:28:22.591Z,10.97
2023-01-17T13:31:22.774Z,9.10
2023-01-17T13:34:15.193Z,6.70
2023-01-17T13:36:57.842Z,8.73
2023-01-17T13:39:48.366Z,5.27
2023-01-17T13:42:24.282Z,7.13
2023-01-17T13:44:51.611Z,9.47
2023-01-17T13:47:40.438Z,6.03
2023-01-17T13:50:40.358Z,5.90
2023-01-17T13:53:55.189Z,7.93
2023-01-17T13:56:42.955Z,5.22
2023-01-17T13:59:34.332Z,15.67
2023-01-17T14:02:01.347Z,8.37
2023-01-17T14:05:13.524Z,9.43
2023-01-17T14:07:46.559Z,9.27
2023-01-17T14:10:27.523Z,4.55
2023-01-17T14:12:54.907Z,11.47
2023-01-17T14:15:25.644Z,8.73
2023-01-17T14:17:56.012Z,6.50
2023-01-17T14:20:46.884Z,6.53
2023-01-17T14:23:37.911Z,4.03
2023-01-17T14:26:28.292Z,7.47
2023-01-17T14:28:56.283Z,6.23
2023-01-17T14:31:24.406Z,12.57
2023-01-17T14:33:51.412Z,7.23
2023-01-17T14:36:29.543Z,8.60
2023-01-17T14:38:56.544Z,6.67
2023-01-17T14:41:25.926Z,7.87
2023-01-17T14:43:53.748Z,3.60
2023-01-17T14:46:24.932Z,12.53
2023-01-17T14:48:58.622Z,11.43
2023-01-17T14:51:27.037Z,3.75
2023-01-17T14:53:55.454Z,4.07
2023-01-17T14:56:23.595Z,9.23
2023-01-17T14:59:04.832Z,5.93
2023-01-17T15:01:33.300Z,3.80
2023-01-17T15:04:00.415Z,7.67
2023-01-17T15:06:36.202Z,9.13
2023-01-17T15:09:09.568Z,5.83
2023-01-17T15:11:37.325Z,14.88
2023-01-17T15:14:06.295Z,4.13
2023-01-17T15:16:34.873Z,8.57
2023-01-17T15:19:02.587Z,7.47
2023-01-17T15:21:35.506Z,7.30
2023-01-17T15:24:07.101Z,5.47
2023-01-17T15:26:36.745Z,11.20
2023-01-17T15:29:06.527Z,13.43
2023-01-17T15:31:43.018Z,12.97
2023-01-17T15:34:19.345Z,10.93
2023-01-17T15:36:50.000Z,6.97
2023-01-17T15:39:21.333Z,5.80
2023-01-17T15:41:52.001Z,7.83
2023-01-17T15:44:53.033Z,5.87
2023-01-17T15:47:31.406Z,7.20
2023-01-17T15:49:59.977Z,6.17
2023-01-17T15:52:29.220Z,4.67
2023-01-17T15:54:59.331Z,11.70
2023-01-17T15:57:28.292Z,6.23
2023-01-17T15:59:58.629Z,4.10
2023-01-17T16:02:38.794Z,6.93
2023-01-17T16:05:44.456Z,7.27
2023-01-17T16:08:38.586Z,5.33
2023-01-17T16:13:35.558Z,4.23
2023-01-17T16:16:22.929Z,4.30
2023-01-17T16:18:57.928Z,7.10
2023-01-17T16:21:26.542Z,14.13
2023-01-17T16:23:55.271Z,7.83
2023-01-17T16:26:22.613Z,10.37
2023-01-17T16:28:50.171Z,7.07
2023-01-17T16:31:17.203Z,5.37
2023-01-17T16:33:45.948Z,11.20
2023-01-17T16:36:16.810Z,6.37
2023-01-17T16:38:44.524Z,9.83
2023-01-17T16:41:12.805Z,8.10
2023-01-17T16:43:39.849Z,7.10
2023-01-17T16:46:07.042Z,4.93
2023-01-17T16:48:34.006Z,6.87
2023-01-17T16:51:05.607Z,6.47
2023-01-17T16:53:32.805Z,13.13
2023-01-17T16:56:07.534Z,5.93
2023-01-17T16:58:35.865Z,8.10
2023-01-17T17:01:02.872Z,7.30
2023-01-17T17:03:30.043Z,8.17
2023-01-17T17:05:58.357Z,8.00
2023-01-17T17:08:25.424Z,7.67
2023-01-17T17:10:52.374Z,6.83
2023-01-17T17:13:19.325Z,11.07
2023-01-17T17:15:47.681Z,9.67
2023-01-17T17:18:16.020Z,9.67
2023-01-17T17:20:43.432Z,16.27
2023-01-17T17:23:10.931Z,7.10
2023-01-17T17:25:38.358Z,8.37
2023-01-17T17:28:06.029Z,8.13
2023-01-17T17:30:33.459Z,12.07
2023-01-17T17:33:04.712Z,6.83
2023-01-17T17:35:34.658Z,11.63
2023-01-17T17:38:01.603Z,12.87
2023-01-17T17:40:28.433Z,10.67
2023-01-17T17:42:55.372Z,10.63
2023-01-17T17:45:22.650Z,8.20
2023-01-17T17:47:49.529Z,8.23
2023-01-17T17:50:18.213Z,9.80
2023-01-17T17:52:45.202Z,9.83
2023-01-17T17:55:13.226Z,8.83
2023-01-17T17:57:40.183Z,15.97
2023-01-17T18:00:08.383Z,9.17
2023-01-17T18:02:35.283Z,8.53
2023-01-17T18:05:02.421Z,12.93
2023-01-17T18:07:32.628Z,15.87
2023-01-17T18:09:59.656Z,11.10
2023-01-17T18:12:26.949Z,11.27
2023-01-17T18:14:53.836Z,10.40
2023-01-17T18:17:20.730Z,12.87
2023-01-17T18:19:47.627Z,10.57
2023-01-17T18:22:14.434Z,12.37
2023-01-17T18:24:42.731Z,13.83
2023-01-17T18:27:10.542Z,11.83
2023-01-17T18:29:37.463Z,12.77
2023-01-17T18:32:04.657Z,17.53
2023-01-17T18:34:33.815Z,15.27
2023-01-17T18:37:01.058Z,19.90
2023-01-17T18:39:29.381Z,18.00
2023-01-17T18:41:57.728Z,16.73
2023-01-17T18:44:25.260Z,21.10
2023-01-17T18:46:53.857Z,15.73
2023-01-17T18:49:21.009Z,16.23
2023-01-17T18:51:50.938Z,16.47
2023-01-17T18:54:19.094Z,16.93
2023-01-17T18:56:46.212Z,18.90
2023-01-17T18:59:16.081Z,15.63
2023-01-17T19:01:43.843Z,17.43
2023-01-17T19:04:11.896Z,24.43
2023-01-17T19:06:40.973Z,14.37
2023-01-17T19:09:10.389Z,17.87
2023-01-17T19:11:37.485Z,18.60
2023-01-17T19:14:04.822Z,21.53
2023-01-17T19:16:36.235Z,14.37
2023-01-17T19:19:06.377Z,14.57
2023-01-17T19:21:33.740Z,16.53
2023-01-17T19:24:01.318Z,17.53
2023-01-17T19:26:28.537Z,19.53
2023-01-17T19:28:56.827Z,24.67
2023-01-17T19:31:25.812Z,23.93
2023-01-17T19:33:57.523Z,25.20
2023-01-17T19:36:26.285Z,15.80
2023-01-17T19:39:03.925Z,25.00
2023-01-17T19:41:33.408Z,21.47
2023-01-17T19:44:01.715Z,20.63
2023-01-17T19:46:29.258Z,26.17
2023-01-17T19:48:58.241Z,17.27
2023-01-17T19:51:26.862Z,21.60
2023-01-17T19:53:54.116Z,24.30
2023-01-17T19:56:23.297Z,21.00
2023-01-17T19:58:50.651Z,21.57
2023-01-17T20:01:19.690Z,28.50
2023-01-17T20:03:48.699Z,34.20
2023-01-17T20:06:18.551Z,24.50
2023-01-17T20:08:45.839Z,21.43
2023-01-17T20:11:14.869Z,30.03
2023-01-17T20:13:42.283Z,17.33
2023-01-17T20:16:11.999Z,27.37
2023-01-17T20:18:39.084Z,17.83
2023-01-17T20:21:07.885Z,17.03
2023-01-17T20:23:38.499Z,19.33
2023-01-17T20:26:06.280Z,21.40
2023-01-17T20:28:34.957Z,23.07
2023-01-17T20:31:06.725Z,24.13
2023-01-17T20:33:33.627Z,28.80
2023-01-17T20:36:09.972Z,40.50
2023-01-17T20:38:45.434Z,24.83
2023-01-17T20:41:13.782Z,25.97
2023-01-17T20:43:40.886Z,27.27
2023-01-17T20:46:07.882Z,21.27
2023-01-17T20:48:34.842Z,25.63
2023-01-17T20:51:06.574Z,24.33
2023-01-17T20:53:35.012Z,29.13
2023-01-17T20:56:03.557Z,22.73
2023-01-17T20:58:31.258Z,27.13
2023-01-17T21:00:58.890Z,32.10
2023-01-17T21:03:30.001Z,25.70
2023-01-17T21:06:01.790Z,47.73
2023-01-17T21:08:29.000Z,28.77
2023-01-17T21:10:55.914Z,25.50
2023-01-17T21:13:24.645Z,26.97
2023-01-17T21:15:52.217Z,22.30
2023-01-17T21:18:20.776Z,18.13
2023-01-17T21:20:50.786Z,23.53
2023-01-17T21:23:18.715Z,25.03
2023-01-17T21:25:56.578Z,19.13
2023-01-17T21:28:27.101Z,21.77
2023-01-17T21:31:07.406Z,25.23
2023-01-17T21:33:36.133Z,27.97
2023-01-17T21:36:08.550Z,20.70
2023-01-17T21:41:27.596Z,25.07
2023-01-17T21:44:10.832Z,22.73
2023-01-17T21:46:42.196Z,27.43
2023-01-17T21:49:25.944Z,24.90
2023-01-17T21:52:00.841Z,20.48
2023-01-17T21:54:59.527Z,30.47
2023-01-17T21:57:55.541Z,25.63
2023-01-17T22:01:12.642Z,28.50
2023-01-17T22:04:21.812Z,20.37
2023-01-17T22:07:11.170Z,24.87
2023-01-17T22:09:39.130Z,21.83
2023-01-17T22:12:06.869Z,26.73
2023-01-17T22:15:05.017Z,19.20
2023-01-17T22:18:04.759Z,23.37
2023-01-17T22:20:39.232Z,21.87
2023-01-17T22:23:27.411Z,22.23
2023-01-17T22:26:31.953Z,17.10
2023-01-17T22:29:03.637Z,18.27
2023-01-17T22:34:22.915Z,18.83
2023-01-17T22:37:06.744Z,17.00
2023-01-17T22:39:50.321Z,25.80
2023-01-17T22:42:24.220Z,16.70
2023-01-17T22:48:34.785Z,30.90
2023-01-17T22:51:49.808Z,23.03
2023-01-17T22:54:37.705Z,16.87
2023-01-17T22:57:42.195Z,15.33
2023-01-17T23:02:59.067Z,13.27
2023-01-17T23:05:26.393Z,18.77
2023-01-17T23:08:41.075Z,16.37
2023-01-17T23:15:49.142Z,23.40
2023-01-17T23:19:04.865Z,12.73
2023-01-17T23:22:23.635Z,14.47
2023-01-17T23:25:25.408Z,15.20
2023-01-17T23:28:32.175Z,19.13
2023-01-17T23:31:25.507Z,16.13
2023-01-17T23:36:09.685Z,15.90
2023-01-17T23:41:53.431Z,18.27
2023-01-17T23:45:02.204Z,15.73
2023-01-17T23:48:33.233Z,20.60
2023-01-17T23:55:05.139Z,18.00
2023-01-17T23:58:20.619Z,16.20
